Terminal Aerodrome Forecast
Issued by NWS

Home | Current Version | Previous Version | Text Only | Print | Product List | Glossary On
Versions: 1 2 3 4 5 6 7 8 9 10 11 12 13 14 15 16 17 18 19 20 21 22 23 24 25 26 27 28 29 30 31
000
FTAK31 PANC 221358 AAA
TAFADU
TAF AMD
PADU 221358Z 2214/2312 14022G35KT 1 1/2SM -SN BKN015 OVC030
     FM221500 11030G45KT 3/4SM -SN BR BKN010 OVC020
     FM221800 11040G55KT 1/4SM SN BLSN OVC004
     FM230000 12030G40KT 2SM -RASN OVC007
     FM230300 13015G25KT 4SM -RASN OVC007=

USA.gov is the U.S. government's official web portal to all federal, state and local government web resources and services.